»·PEaware :: N462GS KBFL-KMHV

N462GS :: KBFL-KMHV

FLIGHT INFORMATION

Flight Status: Arrived
Operator: Privately registered:
United States
More flights under this callsign
Pilot: Galeno G. (3087)
Aircraft: CESSNA 172 SKYHAWK
(C172)
More flights by this aircraft type
Origin: KBFL Meadows
United States
Destination: KMHV Mojave
United States
More flights between these airports :: More routes between these airports
Route:
File this flight plan on PilotEdge
Remarks:
Altitude:
(Current/Filed)
7,500ft
Speed:
(Current/Filed)
110kts
Departed: 17-Oct-20 05:13 PM
Arrived: 17-Oct-20 05:47 PM
Distance/Time
Traveled:
50nm/0:33
Distance/Time
To Go:
Arrived

Flight Plot

Page will automatically refresh every two minutes.


Map Options




Map Legend


Flown Route
Filed Route
Departure Airport
Arrival Airport
Navaid (VOR, NDB)
Fix

Horizontal Profiles

Position Reports

Time Latitude Longitude Heading Altitude Ground
Speed
17-Oct-20 16:57 35.430481 -119.047847 142 485ft 0kts
17-Oct-20 16:58 35.430478 -119.047845 140 485ft 0kts
17-Oct-20 16:58 35.430475 -119.047842 144 485ft 0kts
17-Oct-20 17:00 35.430475 -119.047842 144 485ft 0kts
17-Oct-20 17:00 35.430475 -119.047842 144 485ft 0kts
17-Oct-20 17:02 35.430475 -119.047842 144 485ft 0kts
17-Oct-20 17:02 35.430475 -119.047842 144 485ft 0kts
17-Oct-20 17:03 35.430475 -119.047842 144 485ft 0kts
17-Oct-20 17:04 35.430475 -119.047842 144 485ft 0kts
17-Oct-20 17:05 35.430475 -119.047842 144 485ft 0kts
17-Oct-20 17:06 35.430475 -119.047842 144 485ft 0kts
17-Oct-20 17:07 35.429787 -119.048629 224 483ft 7kts
17-Oct-20 17:08 35.426532 -119.045123 135 473ft 23kts
17-Oct-20 17:09 35.425766 -119.044667 236 472ft 0kts
17-Oct-20 17:10 35.425766 -119.044667 236 472ft 0kts
17-Oct-20 17:11 35.425883 -119.046617 314 477ft 12kts
17-Oct-20 17:12 35.430870 -119.052570 316 528ft 75kts
17-Oct-20 17:13 35.447445 -119.072422 326 1118ft 97kts
17-Oct-20 17:14 35.451063 -119.049419 131 1622ft 103kts
17-Oct-20 17:15 35.432323 -119.024316 134 2130ft 96kts
17-Oct-20 17:16 35.414432 -119.001197 134 2631ft 91kts
17-Oct-20 17:17 35.396304 -118.977682 134 3136ft 98kts
17-Oct-20 17:18 35.377291 -118.953043 134 3636ft 100kts
17-Oct-20 17:19 35.362451 -118.923977 121 4133ft 100kts
17-Oct-20 17:20 35.350490 -118.893555 114 4631ft 98kts
17-Oct-20 17:21 35.338877 -118.863424 116 5130ft 96kts
17-Oct-20 17:22 35.327322 -118.833831 116 5634ft 95kts
17-Oct-20 17:23 35.319375 -118.803496 100 6134ft 93kts
17-Oct-20 17:24 35.314619 -118.772735 112 6637ft 90kts
17-Oct-20 17:25 35.304820 -118.745338 114 7142ft 85kts
17-Oct-20 17:26 35.295301 -118.718377 114 7488ft 98kts
17-Oct-20 17:27 35.282784 -118.683802 117 7498ft 119kts
17-Oct-20 17:28 35.267671 -118.647040 117 7499ft 121kts
17-Oct-20 17:29 35.252500 -118.610158 117 7498ft 121kts
17-Oct-20 17:30 35.237792 -118.574272 117 7499ft 115kts
17-Oct-20 17:31 35.223508 -118.539424 117 7502ft 115kts
17-Oct-20 17:32 35.209104 -118.504128 117 7496ft 115kts
17-Oct-20 17:33 35.199671 -118.466708 105 7499ft 115kts
17-Oct-20 17:34 35.190266 -118.429356 119 7504ft 115kts
17-Oct-20 17:35 35.173156 -118.396135 123 7497ft 115kts
17-Oct-20 17:36 35.156015 -118.363452 123 7501ft 114kts
17-Oct-20 17:37 35.139472 -118.330167 117 7498ft 114kts
17-Oct-20 17:38 35.125138 -118.295283 119 7489ft 113kts
17-Oct-20 17:39 35.107904 -118.262661 126 6954ft 112kts
17-Oct-20 17:40 35.090827 -118.230484 116 5582ft 113kts
17-Oct-20 17:41 35.077675 -118.195053 120 4137ft 110kts
17-Oct-20 17:42 35.058935 -118.170437 142 3796ft 92kts
17-Oct-20 17:43 35.039634 -118.152887 140 3681ft 85kts
17-Oct-20 17:44 35.024569 -118.133106 59 3747ft 81kts
17-Oct-20 17:45 35.042341 -118.127979 315 2785ft 69kts
17-Oct-20 17:46 35.052584 -118.140377 315 2728ft 29kts
17-Oct-20 17:47 35.057615 -118.147853 269 2748ft 0kts
17-Oct-20 17:48 35.057622 -118.149616 270 2752ft 17kts
17-Oct-20 17:49 35.057025 -118.152608 198 2758ft 0kts
17-Oct-20 17:50 35.057025 -118.152608 198 2758ft 0kts

Navigation Log

Ident Type
Flight plan parsing failed, navigation log unavailable